WJA509 CYEG-CYYJ
Flight info
| Callsign | WJA509 |
|---|---|
| Flight time | 1h 22m |
| Altitude | 36000 |
| Route | ANDIE Q860 MERYT DCT BOOTH APASS8 |
| Aircraft | B738/M-SDE2E3FGHIRWXY/LB1 |
Departure
| Time | 2026-05-07 17:54 |
|---|---|
| Airport | Edmonton International Airport (CYEG) |
Arrival
| Time | 2026-05-07 19:16 |
|---|---|
| Airport | Victoria International Airport (CYYJ) |
| Time | Latitude | Longitude | Altitude | Speed | Heading |
|---|---|---|---|---|---|
| 2026-05-07 17:23 | 53.30331 | -113.58041 | 2347 ft | 0 kts | 45° |
| 2026-05-07 17:43 | 53.30329 | -113.58044 | 2347 ft | 1 kts | 45° |
| 2026-05-07 17:44 | 53.30318 | -113.58061 | 2347 ft | 2 kts | 45° |
| 2026-05-07 17:44 | 53.30309 | -113.58079 | 2346 ft | 2 kts | 58° |
| 2026-05-07 17:44 | 53.30302 | -113.58102 | 2346 ft | 2 kts | 72° |
| 2026-05-07 17:44 | 53.30299 | -113.58127 | 2345 ft | 2 kts | 87° |
| 2026-05-07 17:45 | 53.30300 | -113.58152 | 2345 ft | 2 kts | 102° |
| 2026-05-07 17:45 | 53.30305 | -113.58176 | 2344 ft | 2 kts | 116° |
| 2026-05-07 17:45 | 53.30313 | -113.58196 | 2344 ft | 1 kts | 131° |
| 2026-05-07 17:45 | 53.30317 | -113.58205 | 2344 ft | 1 kts | 136° |
| 2026-05-07 17:46 | 53.30319 | -113.58207 | 2344 ft | 0 kts | 135° |
| 2026-05-07 17:48 | 53.30319 | -113.58206 | 2344 ft | 0 kts | 135° |
| 2026-05-07 17:48 | 53.30275 | -113.58134 | 2345 ft | 14 kts | 134° |
| 2026-05-07 17:49 | 53.30209 | -113.58021 | 2347 ft | 13 kts | 133° |
| 2026-05-07 17:49 | 53.30133 | -113.57892 | 2348 ft | 17 kts | 135° |
| 2026-05-07 17:49 | 53.30048 | -113.57806 | 2350 ft | 13 kts | 200° |
| 2026-05-07 17:49 | 53.29957 | -113.57922 | 2349 ft | 17 kts | 192° |
| 2026-05-07 17:50 | 53.29843 | -113.57780 | 2352 ft | 27 kts | 134° |
| 2026-05-07 17:50 | 53.29714 | -113.57564 | 2356 ft | 25 kts | 134° |
| 2026-05-07 17:50 | 53.29594 | -113.57366 | 2359 ft | 23 kts | 134° |
| 2026-05-07 17:50 | 53.29478 | -113.57169 | 2361 ft | 25 kts | 136° |
| 2026-05-07 17:51 | 53.29346 | -113.56950 | 2364 ft | 26 kts | 135° |
| 2026-05-07 17:51 | 53.29221 | -113.56739 | 2364 ft | 25 kts | 135° |
| 2026-05-07 17:51 | 53.29097 | -113.56529 | 2364 ft | 25 kts | 133° |
| 2026-05-07 17:51 | 53.28974 | -113.56329 | 2364 ft | 24 kts | 134° |
| 2026-05-07 17:52 | 53.28823 | -113.56244 | 2364 ft | 17 kts | 180° |
| 2026-05-07 17:52 | 53.28793 | -113.56244 | 2365 ft | 0 kts | 180° |
| 2026-05-07 17:53 | 53.28782 | -113.56245 | 2365 ft | 4 kts | 181° |
| 2026-05-07 17:53 | 53.28753 | -113.56259 | 2365 ft | 10 kts | 206° |
| 2026-05-07 17:53 | 53.28721 | -113.56364 | 2366 ft | 13 kts | 295° |
| 2026-05-07 17:53 | 53.28871 | -113.56626 | 2364 ft | 64 kts | 315° |
| 2026-05-07 17:54 | 53.29390 | -113.57497 | 2358 ft | 142 kts | 315° |
| 2026-05-07 17:54 | 53.30167 | -113.58804 | 2892 ft | 167 kts | 315° |
| 2026-05-07 17:54 | 53.30971 | -113.60200 | 3752 ft | 174 kts | 315° |
| 2026-05-07 17:54 | 53.31817 | -113.61615 | 4326 ft | 168 kts | 317° |
| 2026-05-07 17:55 | 53.32712 | -113.63067 | 4651 ft | 192 kts | 317° |
| 2026-05-07 17:55 | 53.33696 | -113.64691 | 5275 ft | 208 kts | 316° |
| 2026-05-07 17:55 | 53.34765 | -113.66479 | 5867 ft | 229 kts | 316° |
| 2026-05-07 17:55 | 53.35911 | -113.68401 | 6624 ft | 243 kts | 316° |
| 2026-05-07 17:56 | 53.37128 | -113.70445 | 7370 ft | 257 kts | 316° |
| 2026-05-07 17:56 | 53.38353 | -113.72662 | 8399 ft | 261 kts | 309° |
| 2026-05-07 17:56 | 53.39241 | -113.75232 | 9429 ft | 265 kts | 292° |
| 2026-05-07 17:56 | 53.39598 | -113.78241 | 10434 ft | 272 kts | 277° |
| 2026-05-07 17:57 | 53.39523 | -113.81460 | 11284 ft | 284 kts | 265° |
| 2026-05-07 17:57 | 53.39183 | -113.83593 | 11891 ft | 293 kts | 253° |
| 2026-05-07 17:57 | 53.37632 | -113.87333 | 13090 ft | 309 kts | 229° |
| 2026-05-07 17:57 | 53.35968 | -113.89696 | 13969 ft | 316 kts | 223° |
| 2026-05-07 17:58 | 53.34259 | -113.91942 | 14850 ft | 319 kts | 223° |
| 2026-05-07 17:58 | 53.32493 | -113.94246 | 15707 ft | 323 kts | 223° |
| 2026-05-07 17:58 | 53.30747 | -113.96538 | 16543 ft | 326 kts | 223° |
| 2026-05-07 17:58 | 53.28975 | -113.98877 | 17341 ft | 330 kts | 223° |
| 2026-05-07 17:59 | 53.27175 | -114.01262 | 18125 ft | 334 kts | 224° |
| 2026-05-07 17:59 | 53.25351 | -114.03678 | 18911 ft | 337 kts | 223° |
| 2026-05-07 17:59 | 53.23520 | -114.06103 | 19667 ft | 341 kts | 223° |
| 2026-05-07 17:59 | 53.21646 | -114.08581 | 20431 ft | 345 kts | 224° |
| 2026-05-07 18:00 | 53.19779 | -114.11047 | 21180 ft | 347 kts | 224° |
| 2026-05-07 18:00 | 53.17869 | -114.13565 | 21867 ft | 352 kts | 224° |
| 2026-05-07 18:00 | 53.15966 | -114.16071 | 22552 ft | 355 kts | 224° |
| 2026-05-07 18:00 | 53.14030 | -114.18617 | 23284 ft | 357 kts | 223° |
| 2026-05-07 18:01 | 53.12082 | -114.21175 | 23946 ft | 360 kts | 224° |
| 2026-05-07 18:01 | 53.10128 | -114.23739 | 24561 ft | 364 kts | 224° |
| 2026-05-07 18:01 | 53.08125 | -114.26364 | 25192 ft | 366 kts | 224° |
| 2026-05-07 18:01 | 53.06143 | -114.28960 | 25744 ft | 370 kts | 224° |
| 2026-05-07 18:02 | 53.02077 | -114.34274 | 26870 ft | 375 kts | 224° |
| 2026-05-07 18:02 | 53.00080 | -114.37064 | 27409 ft | 375 kts | 229° |
| 2026-05-07 18:02 | 52.98277 | -114.40108 | 27914 ft | 373 kts | 235° |
| 2026-05-07 18:03 | 52.96681 | -114.43423 | 28429 ft | 372 kts | 239° |
| 2026-05-07 18:03 | 52.95166 | -114.46932 | 28966 ft | 373 kts | 241° |
| 2026-05-07 18:03 | 52.93720 | -114.50477 | 29453 ft | 374 kts | 243° |
| 2026-05-07 18:03 | 52.92296 | -114.54044 | 29905 ft | 377 kts | 243° |
| 2026-05-07 18:04 | 52.90853 | -114.57662 | 30360 ft | 380 kts | 243° |
| 2026-05-07 18:04 | 52.89384 | -114.61325 | 30847 ft | 381 kts | 243° |
| 2026-05-07 18:04 | 52.87899 | -114.64999 | 31262 ft | 384 kts | 243° |
| 2026-05-07 18:04 | 52.86413 | -114.68658 | 31660 ft | 388 kts | 242° |
| 2026-05-07 18:05 | 52.84889 | -114.72386 | 32117 ft | 389 kts | 241° |
| 2026-05-07 18:05 | 52.83371 | -114.76086 | 32506 ft | 392 kts | 241° |
| 2026-05-07 18:05 | 52.81834 | -114.79825 | 32919 ft | 395 kts | 241° |
| 2026-05-07 18:05 | 52.80280 | -114.83591 | 33308 ft | 398 kts | 241° |
| 2026-05-07 18:06 | 52.78719 | -114.87366 | 33686 ft | 400 kts | 241° |
| 2026-05-07 18:06 | 52.77150 | -114.91152 | 34078 ft | 402 kts | 241° |
| 2026-05-07 18:06 | 52.75557 | -114.94994 | 34440 ft | 405 kts | 241° |
| 2026-05-07 18:06 | 52.73951 | -114.98863 | 34769 ft | 408 kts | 241° |
| 2026-05-07 18:07 | 52.72334 | -115.02748 | 35016 ft | 411 kts | 241° |
| 2026-05-07 18:07 | 52.70718 | -115.06622 | 35201 ft | 415 kts | 241° |
| 2026-05-07 18:07 | 52.69073 | -115.10557 | 35426 ft | 416 kts | 241° |
| 2026-05-07 18:07 | 52.67463 | -115.14397 | 35757 ft | 412 kts | 241° |
| 2026-05-07 18:08 | 52.65836 | -115.18272 | 35882 ft | 414 kts | 241° |
| 2026-05-07 18:08 | 52.62571 | -115.26045 | 35938 ft | 411 kts | 241° |
| 2026-05-07 18:09 | 52.59340 | -115.33714 | 35952 ft | 412 kts | 241° |
| 2026-05-07 18:09 | 52.56083 | -115.41427 | 35961 ft | 412 kts | 242° |
| 2026-05-07 18:10 | 52.52801 | -115.49170 | 35971 ft | 411 kts | 241° |
| 2026-05-07 18:10 | 52.49535 | -115.56847 | 35984 ft | 412 kts | 242° |
| 2026-05-07 18:11 | 52.46261 | -115.64525 | 35982 ft | 411 kts | 242° |
| 2026-05-07 18:11 | 52.42995 | -115.72164 | 35994 ft | 411 kts | 241° |
| 2026-05-07 18:12 | 52.39700 | -115.79845 | 36001 ft | 412 kts | 241° |
| 2026-05-07 18:12 | 52.36419 | -115.87483 | 36012 ft | 411 kts | 241° |
| 2026-05-07 18:13 | 52.33129 | -115.95100 | 36015 ft | 411 kts | 241° |
| 2026-05-07 18:13 | 52.29833 | -116.02714 | 36020 ft | 412 kts | 241° |
| 2026-05-07 18:14 | 52.26530 | -116.10330 | 36033 ft | 413 kts | 242° |
| 2026-05-07 18:14 | 52.23217 | -116.17938 | 36033 ft | 411 kts | 242° |
| 2026-05-07 18:15 | 52.19904 | -116.25522 | 36032 ft | 411 kts | 242° |
| 2026-05-07 18:15 | 52.16606 | -116.33048 | 36031 ft | 411 kts | 242° |
| 2026-05-07 18:16 | 52.13294 | -116.40590 | 36042 ft | 411 kts | 242° |
| 2026-05-07 18:16 | 52.09977 | -116.48106 | 36059 ft | 410 kts | 242° |
| 2026-05-07 18:17 | 52.06676 | -116.55564 | 36058 ft | 409 kts | 242° |
| 2026-05-07 18:17 | 52.03345 | -116.63084 | 36064 ft | 410 kts | 243° |
| 2026-05-07 18:18 | 52.00005 | -116.70599 | 36075 ft | 418 kts | 242° |
| 2026-05-07 18:18 | 51.96558 | -116.78372 | 36069 ft | 437 kts | 242° |
| 2026-05-07 18:19 | 51.92960 | -116.86436 | 36069 ft | 445 kts | 242° |
| 2026-05-07 18:19 | 51.89320 | -116.94524 | 36066 ft | 442 kts | 242° |
| 2026-05-07 18:20 | 51.85722 | -117.02493 | 36059 ft | 441 kts | 242° |
| 2026-05-07 18:20 | 51.82116 | -117.10465 | 36059 ft | 439 kts | 243° |
| 2026-05-07 18:21 | 51.78547 | -117.18346 | 36056 ft | 439 kts | 243° |
| 2026-05-07 18:21 | 51.74934 | -117.26305 | 36058 ft | 439 kts | 243° |
| 2026-05-07 18:22 | 51.71329 | -117.34224 | 36069 ft | 441 kts | 243° |
| 2026-05-07 18:22 | 51.67697 | -117.42172 | 36068 ft | 441 kts | 243° |
| 2026-05-07 18:23 | 51.64094 | -117.50032 | 36058 ft | 436 kts | 243° |
| 2026-05-07 18:23 | 51.60497 | -117.57867 | 36066 ft | 438 kts | 244° |
| 2026-05-07 18:24 | 51.56889 | -117.65688 | 36063 ft | 439 kts | 243° |
| 2026-05-07 18:24 | 51.53274 | -117.73503 | 36047 ft | 439 kts | 243° |
| 2026-05-07 18:25 | 51.49620 | -117.81375 | 36045 ft | 437 kts | 243° |
| 2026-05-07 18:25 | 51.45981 | -117.89199 | 36037 ft | 438 kts | 243° |
| 2026-05-07 18:26 | 51.42354 | -117.96954 | 36031 ft | 437 kts | 243° |
| 2026-05-07 18:26 | 51.38730 | -118.04698 | 36030 ft | 437 kts | 243° |
| 2026-05-07 18:27 | 51.35081 | -118.12479 | 36041 ft | 441 kts | 243° |
| 2026-05-07 18:27 | 51.31417 | -118.20258 | 36053 ft | 434 kts | 243° |
| 2026-05-07 18:28 | 51.27774 | -118.27971 | 36051 ft | 439 kts | 243° |
| 2026-05-07 18:28 | 51.24111 | -118.35709 | 36049 ft | 438 kts | 243° |
| 2026-05-07 18:29 | 51.20452 | -118.43401 | 36049 ft | 437 kts | 243° |
| 2026-05-07 18:29 | 51.16810 | -118.51039 | 36042 ft | 437 kts | 243° |
| 2026-05-07 18:30 | 51.13136 | -118.58736 | 36038 ft | 437 kts | 243° |
| 2026-05-07 18:30 | 51.09436 | -118.66456 | 36038 ft | 438 kts | 242° |
| 2026-05-07 18:31 | 51.05746 | -118.74133 | 36032 ft | 438 kts | 242° |
| 2026-05-07 18:31 | 51.02066 | -118.81761 | 36032 ft | 438 kts | 242° |
| 2026-05-07 18:32 | 50.98357 | -118.89427 | 36027 ft | 438 kts | 242° |
| 2026-05-07 18:32 | 50.94668 | -118.97019 | 36023 ft | 437 kts | 242° |
| 2026-05-07 18:33 | 50.90948 | -119.04665 | 36023 ft | 441 kts | 242° |
| 2026-05-07 18:33 | 50.87235 | -119.12274 | 36029 ft | 438 kts | 242° |
| 2026-05-07 18:34 | 50.83529 | -119.19847 | 36031 ft | 439 kts | 242° |
| 2026-05-07 18:34 | 50.79787 | -119.27479 | 36033 ft | 441 kts | 242° |
| 2026-05-07 18:35 | 50.76064 | -119.35035 | 36042 ft | 439 kts | 242° |
| 2026-05-07 18:35 | 50.72305 | -119.42653 | 36044 ft | 441 kts | 242° |
| 2026-05-07 18:36 | 50.68547 | -119.50234 | 36057 ft | 437 kts | 242° |
| 2026-05-07 18:36 | 50.64819 | -119.57739 | 36049 ft | 437 kts | 242° |
| 2026-05-07 18:37 | 50.61058 | -119.65297 | 36052 ft | 442 kts | 241° |
| 2026-05-07 18:37 | 50.57271 | -119.72877 | 36060 ft | 440 kts | 240° |
| 2026-05-07 18:37 | 50.55379 | -119.76658 | 36209 ft | 443 kts | 240° |
| 2026-05-07 18:38 | 50.53476 | -119.80444 | 36072 ft | 435 kts | 240° |
| 2026-05-07 18:38 | 50.49715 | -119.87920 | 36076 ft | 439 kts | 240° |
| 2026-05-07 18:39 | 50.45933 | -119.95441 | 36074 ft | 439 kts | 240° |
| 2026-05-07 18:39 | 50.42135 | -120.02959 | 36070 ft | 441 kts | 240° |
| 2026-05-07 18:40 | 50.38318 | -120.10487 | 36074 ft | 442 kts | 240° |
| 2026-05-07 18:40 | 50.34511 | -120.17969 | 36076 ft | 437 kts | 240° |
| 2026-05-07 18:41 | 50.30720 | -120.25406 | 36077 ft | 441 kts | 240° |
| 2026-05-07 18:41 | 50.26908 | -120.32867 | 36080 ft | 439 kts | 240° |
| 2026-05-07 18:42 | 50.23117 | -120.40260 | 36078 ft | 440 kts | 240° |
| 2026-05-07 18:42 | 50.19315 | -120.47654 | 36081 ft | 439 kts | 240° |
| 2026-05-07 18:43 | 50.15517 | -120.55021 | 36083 ft | 438 kts | 240° |
| 2026-05-07 18:43 | 50.11711 | -120.62383 | 36087 ft | 437 kts | 240° |
| 2026-05-07 18:44 | 50.07890 | -120.69757 | 36089 ft | 443 kts | 239° |
| 2026-05-07 18:44 | 50.04038 | -120.77166 | 36090 ft | 440 kts | 239° |
| 2026-05-07 18:45 | 50.00200 | -120.84525 | 36089 ft | 439 kts | 239° |
| 2026-05-07 18:45 | 49.96358 | -120.91869 | 36085 ft | 441 kts | 239° |
| 2026-05-07 18:46 | 49.92762 | -120.99494 | 36086 ft | 431 kts | 245° |
| 2026-05-07 18:46 | 49.89693 | -121.07387 | 36089 ft | 430 kts | 248° |
| 2026-05-07 18:47 | 49.86705 | -121.15408 | 36094 ft | 429 kts | 248° |
| 2026-05-07 18:47 | 49.83713 | -121.23388 | 36085 ft | 427 kts | 247° |
| 2026-05-07 18:48 | 49.80704 | -121.31322 | 36090 ft | 429 kts | 247° |
| 2026-05-07 18:48 | 49.77668 | -121.39242 | 36096 ft | 418 kts | 247° |
| 2026-05-07 18:48 | 49.76211 | -121.42997 | 36090 ft | 402 kts | 247° |
| 2026-05-07 18:49 | 49.74798 | -121.46631 | 36091 ft | 389 kts | 248° |
| 2026-05-07 18:49 | 49.73446 | -121.50111 | 35931 ft | 379 kts | 248° |
| 2026-05-07 18:49 | 49.72095 | -121.53606 | 35536 ft | 378 kts | 248° |
| 2026-05-07 18:49 | 49.70754 | -121.57089 | 34998 ft | 380 kts | 248° |
| 2026-05-07 18:50 | 49.69408 | -121.60586 | 34435 ft | 384 kts | 247° |
| 2026-05-07 18:50 | 49.68047 | -121.64113 | 34048 ft | 385 kts | 247° |
| 2026-05-07 18:50 | 49.66666 | -121.67679 | 33613 ft | 387 kts | 246° |
| 2026-05-07 18:50 | 49.65277 | -121.71246 | 33129 ft | 383 kts | 246° |
| 2026-05-07 18:51 | 49.63921 | -121.74715 | 32663 ft | 379 kts | 246° |
| 2026-05-07 18:51 | 49.62555 | -121.78204 | 32194 ft | 375 kts | 246° |
| 2026-05-07 18:51 | 49.61221 | -121.81609 | 31728 ft | 372 kts | 246° |
| 2026-05-07 18:51 | 49.59903 | -121.84971 | 31274 ft | 368 kts | 245° |
| 2026-05-07 18:52 | 49.58582 | -121.88336 | 30814 ft | 364 kts | 246° |
| 2026-05-07 18:52 | 49.57284 | -121.91644 | 30360 ft | 361 kts | 246° |
| 2026-05-07 18:52 | 49.55988 | -121.94943 | 29901 ft | 357 kts | 245° |
| 2026-05-07 18:52 | 49.54713 | -121.98184 | 29451 ft | 354 kts | 245° |
| 2026-05-07 18:53 | 49.53441 | -122.01415 | 29012 ft | 354 kts | 245° |
| 2026-05-07 18:53 | 49.52162 | -122.04668 | 28561 ft | 359 kts | 245° |
| 2026-05-07 18:53 | 49.50858 | -122.07970 | 28108 ft | 357 kts | 245° |
| 2026-05-07 18:53 | 49.49586 | -122.11172 | 27666 ft | 354 kts | 245° |
| 2026-05-07 18:54 | 49.48306 | -122.14385 | 27212 ft | 350 kts | 245° |
| 2026-05-07 18:54 | 49.47039 | -122.17561 | 26781 ft | 347 kts | 245° |
| 2026-05-07 18:54 | 49.45781 | -122.20710 | 26336 ft | 344 kts | 245° |
| 2026-05-07 18:54 | 49.44541 | -122.23810 | 25906 ft | 340 kts | 245° |
| 2026-05-07 18:55 | 49.43308 | -122.26890 | 25480 ft | 337 kts | 245° |
| 2026-05-07 18:55 | 49.42078 | -122.29964 | 25061 ft | 339 kts | 244° |
| 2026-05-07 18:55 | 49.40841 | -122.33064 | 24619 ft | 343 kts | 244° |
| 2026-05-07 18:55 | 49.39599 | -122.36166 | 24181 ft | 341 kts | 244° |
| 2026-05-07 18:56 | 49.38380 | -122.39213 | 23753 ft | 337 kts | 244° |
| 2026-05-07 18:56 | 49.37162 | -122.42260 | 23331 ft | 334 kts | 244° |
| 2026-05-07 18:56 | 49.35962 | -122.45263 | 22910 ft | 331 kts | 244° |
| 2026-05-07 18:56 | 49.34755 | -122.48283 | 22483 ft | 328 kts | 244° |
| 2026-05-07 18:57 | 49.33569 | -122.51244 | 22063 ft | 326 kts | 244° |
| 2026-05-07 18:57 | 49.32396 | -122.54173 | 21662 ft | 323 kts | 244° |
| 2026-05-07 18:57 | 49.31225 | -122.57092 | 21237 ft | 324 kts | 244° |
| 2026-05-07 18:57 | 49.30033 | -122.60068 | 20808 ft | 329 kts | 243° |
| 2026-05-07 18:58 | 49.28840 | -122.63042 | 20405 ft | 328 kts | 243° |
| 2026-05-07 18:58 | 49.27650 | -122.65994 | 20130 ft | 323 kts | 242° |
| 2026-05-07 18:58 | 49.26465 | -122.68925 | 20125 ft | 325 kts | 242° |
| 2026-05-07 18:58 | 49.25267 | -122.71892 | 20119 ft | 329 kts | 242° |
| 2026-05-07 18:59 | 49.24074 | -122.74840 | 20119 ft | 328 kts | 242° |
| 2026-05-07 18:59 | 49.22866 | -122.77818 | 20122 ft | 327 kts | 242° |
| 2026-05-07 18:59 | 49.21664 | -122.80781 | 20123 ft | 328 kts | 242° |
| 2026-05-07 18:59 | 49.20465 | -122.83736 | 20018 ft | 326 kts | 242° |
| 2026-05-07 19:00 | 49.19270 | -122.86670 | 19643 ft | 324 kts | 242° |
| 2026-05-07 19:00 | 49.18087 | -122.89575 | 19217 ft | 322 kts | 242° |
| 2026-05-07 19:00 | 49.16915 | -122.92453 | 18815 ft | 319 kts | 242° |
| 2026-05-07 19:00 | 49.15749 | -122.95314 | 18405 ft | 318 kts | 241° |
| 2026-05-07 19:01 | 49.14579 | -122.98185 | 18004 ft | 316 kts | 241° |
| 2026-05-07 19:01 | 49.13438 | -123.00977 | 17610 ft | 314 kts | 241° |
| 2026-05-07 19:01 | 49.12285 | -123.03796 | 17204 ft | 313 kts | 241° |
| 2026-05-07 19:01 | 49.11138 | -123.06598 | 16807 ft | 311 kts | 241° |
| 2026-05-07 19:02 | 49.09993 | -123.09390 | 16349 ft | 312 kts | 240° |
| 2026-05-07 19:02 | 49.08810 | -123.12198 | 15835 ft | 315 kts | 237° |
| 2026-05-07 19:02 | 49.07381 | -123.14733 | 15402 ft | 317 kts | 223° |
| 2026-05-07 19:02 | 49.05545 | -123.16571 | 14998 ft | 318 kts | 209° |
| 2026-05-07 19:03 | 49.03550 | -123.17987 | 14596 ft | 316 kts | 205° |
| 2026-05-07 19:03 | 49.01551 | -123.19308 | 14203 ft | 314 kts | 205° |
| 2026-05-07 19:03 | 48.99551 | -123.20631 | 13821 ft | 312 kts | 205° |
| 2026-05-07 19:03 | 48.97581 | -123.21963 | 13448 ft | 310 kts | 205° |
| 2026-05-07 19:04 | 48.95626 | -123.23304 | 13053 ft | 309 kts | 205° |
| 2026-05-07 19:04 | 48.93688 | -123.24642 | 12651 ft | 306 kts | 205° |
| 2026-05-07 19:04 | 48.91764 | -123.25974 | 12285 ft | 304 kts | 205° |
| 2026-05-07 19:04 | 48.89839 | -123.27307 | 11894 ft | 302 kts | 205° |
| 2026-05-07 19:05 | 48.87962 | -123.28641 | 11523 ft | 299 kts | 208° |
| 2026-05-07 19:05 | 48.86209 | -123.30349 | 11152 ft | 297 kts | 218° |
| 2026-05-07 19:05 | 48.84653 | -123.32346 | 10774 ft | 295 kts | 223° |
| 2026-05-07 19:05 | 48.83148 | -123.34444 | 10395 ft | 294 kts | 223° |
| 2026-05-07 19:06 | 48.81628 | -123.36560 | 9997 ft | 292 kts | 223° |
| 2026-05-07 19:06 | 48.78692 | -123.40528 | 9562 ft | 278 kts | 222° |
| 2026-05-07 19:06 | 48.77270 | -123.42416 | 9457 ft | 267 kts | 222° |
| 2026-05-07 19:07 | 48.75983 | -123.44368 | 9373 ft | 255 kts | 233° |
| 2026-05-07 19:07 | 48.75201 | -123.46689 | 9234 ft | 243 kts | 261° |
| 2026-05-07 19:07 | 48.75284 | -123.49180 | 8952 ft | 238 kts | 288° |
| 2026-05-07 19:07 | 48.75781 | -123.51559 | 8677 ft | 237 kts | 290° |
| 2026-05-07 19:08 | 48.76270 | -123.53920 | 8412 ft | 235 kts | 289° |
| 2026-05-07 19:08 | 48.76727 | -123.56291 | 8143 ft | 234 kts | 288° |
| 2026-05-07 19:08 | 48.77168 | -123.58646 | 7874 ft | 232 kts | 288° |
| 2026-05-07 19:08 | 48.77606 | -123.60984 | 7612 ft | 231 kts | 288° |
| 2026-05-07 19:09 | 48.78041 | -123.63300 | 7355 ft | 229 kts | 288° |
| 2026-05-07 19:09 | 48.78481 | -123.65630 | 7101 ft | 228 kts | 287° |
| 2026-05-07 19:09 | 48.78911 | -123.67907 | 6846 ft | 226 kts | 288° |
| 2026-05-07 19:09 | 48.79341 | -123.70188 | 6585 ft | 226 kts | 287° |
| 2026-05-07 19:10 | 48.79736 | -123.72547 | 6316 ft | 232 kts | 280° |
| 2026-05-07 19:10 | 48.79649 | -123.74918 | 6170 ft | 227 kts | 250° |
| 2026-05-07 19:10 | 48.78783 | -123.76836 | 6023 ft | 222 kts | 221° |
| 2026-05-07 19:10 | 48.77492 | -123.78102 | 5772 ft | 221 kts | 203° |
| 2026-05-07 19:11 | 48.76034 | -123.78811 | 5546 ft | 218 kts | 194° |
| 2026-05-07 19:11 | 48.74551 | -123.79186 | 5328 ft | 221 kts | 179° |
| 2026-05-07 19:11 | 48.73051 | -123.78762 | 5100 ft | 221 kts | 155° |
| 2026-05-07 19:11 | 48.71766 | -123.77492 | 4734 ft | 225 kts | 133° |
| 2026-05-07 19:12 | 48.70885 | -123.75542 | 4303 ft | 229 kts | 110° |
| 2026-05-07 19:12 | 48.70455 | -123.73229 | 3976 ft | 229 kts | 101° |
| 2026-05-07 19:12 | 48.70100 | -123.70856 | 3664 ft | 230 kts | 102° |
| 2026-05-07 19:12 | 48.69727 | -123.68536 | 3363 ft | 230 kts | 103° |
| 2026-05-07 19:13 | 48.69333 | -123.66187 | 3041 ft | 227 kts | 103° |
| 2026-05-07 19:13 | 48.68952 | -123.63935 | 2738 ft | 220 kts | 103° |
| 2026-05-07 19:13 | 48.68534 | -123.61764 | 2548 ft | 209 kts | 109° |
| 2026-05-07 19:13 | 48.67976 | -123.59748 | 2222 ft | 206 kts | 111° |
| 2026-05-07 19:14 | 48.67498 | -123.57758 | 1893 ft | 199 kts | 106° |
| 2026-05-07 19:14 | 48.67136 | -123.55841 | 1634 ft | 183 kts | 102° |
| 2026-05-07 19:14 | 48.66840 | -123.54057 | 1409 ft | 168 kts | 102° |
| 2026-05-07 19:14 | 48.66571 | -123.52410 | 1182 ft | 154 kts | 102° |
| 2026-05-07 19:15 | 48.66325 | -123.50903 | 957 ft | 143 kts | 101° |
| 2026-05-07 19:15 | 48.66094 | -123.49459 | 767 ft | 139 kts | 104° |
| 2026-05-07 19:15 | 48.65858 | -123.48041 | 644 ft | 138 kts | 102° |
| 2026-05-07 19:15 | 48.65644 | -123.46610 | 462 ft | 142 kts | 101° |
| 2026-05-07 19:16 | 48.65411 | -123.45161 | 319 ft | 138 kts | 102° |
| 2026-05-07 19:16 | 48.65143 | -123.43764 | 109 ft | 140 kts | 106° |
| 2026-05-07 19:16 | 48.64904 | -123.42487 | 80 ft | 96 kts | 105° |
| 2026-05-07 19:16 | 48.64794 | -123.41904 | 78 ft | 35 kts | 107° |
| 2026-05-07 19:17 | 48.64732 | -123.41712 | 80 ft | 13 kts | 170° |
| 2026-05-07 19:17 | 48.64657 | -123.41785 | 79 ft | 16 kts | 270° |
| 2026-05-07 19:17 | 48.64685 | -123.41956 | 78 ft | 16 kts | 286° |
| 2026-05-07 19:17 | 48.64711 | -123.42125 | 78 ft | 16 kts | 258° |
| 2026-05-07 19:18 | 48.64609 | -123.42254 | 77 ft | 22 kts | 197° |
| 2026-05-07 19:18 | 48.64457 | -123.42322 | 73 ft | 23 kts | 196° |
| 2026-05-07 19:18 | 48.64290 | -123.42389 | 67 ft | 25 kts | 190° |
| 2026-05-07 19:18 | 48.64148 | -123.42461 | 67 ft | 18 kts | 221° |
| 2026-05-07 19:19 | 48.64133 | -123.42628 | 68 ft | 17 kts | 280° |
| 2026-05-07 19:19 | 48.64156 | -123.42789 | 70 ft | 12 kts | 300° |
| 2026-05-07 19:19 | 48.64223 | -123.42886 | 72 ft | 16 kts | 313° |
| 2026-05-07 19:19 | 48.64253 | -123.43035 | 75 ft | 14 kts | 274° |
| 2026-05-07 19:20 | 48.64221 | -123.43166 | 75 ft | 14 kts | 192° |
| 2026-05-07 19:20 | 48.64137 | -123.43171 | 75 ft | 8 kts | 187° |
| 2026-05-07 19:20 | 48.64119 | -123.43175 | 76 ft | 0 kts | 188° |